Bowling Green, Illinois
Current Conditions -  °F | °C
As of 12:55 PM on Monday 20 Oct 2014 (Local Time) from K1H2 Reporting Station
Clear Clear  
Wind Chill: 70°   Ceiling: Unl
Heat Index: 70°   Visibility: 10mi
Dew Point: 46°   Wind: 9mph
Humidity: 42%   Direction: 290°WNW
Pressure: 29.91"   Gusts: 17mph
Location:  39.2184°N, 88.9038°W
Report Text: K1H2 201755Z AUTO 29008G15KT 10SM CLR 21/08 A2991 RMK AO2 T02120078 10212 20100
Loading
Personal Weather Stations






























Interactive Weather Map New forecast layout! Learn more

10-Day Weather Forecast

Advertisements
Track Severe Weather on mobile